createdAt,value
2018-12-13T00:00:48.199Z,13.37
2018-12-13T00:03:16.672Z,11.43
2018-12-13T00:05:44.266Z,11.93
2018-12-13T00:08:11.863Z,10.87
2018-12-13T00:10:39.454Z,10.70
2018-12-13T00:13:07.040Z,11.00
2018-12-13T00:15:34.584Z,11.07
2018-12-13T00:18:02.231Z,11.60
2018-12-13T00:20:29.822Z,11.57
2018-12-13T00:22:57.422Z,11.20
2018-12-13T00:25:25.012Z,10.73
2018-12-13T00:27:52.599Z,11.07
2018-12-13T00:30:20.174Z,11.03
2018-12-13T00:32:47.758Z,11.70
2018-12-13T00:35:15.345Z,11.90
2018-12-13T00:37:42.942Z,11.43
2018-12-13T00:40:10.532Z,11.70
2018-12-13T00:42:38.096Z,11.40
2018-12-13T00:45:06.432Z,12.23
2018-12-13T00:47:34.069Z,12.30
2018-12-13T00:50:01.686Z,11.73
2018-12-13T00:52:29.436Z,12.07
2018-12-13T00:54:57.057Z,12.50
2018-12-13T00:57:24.644Z,10.50
2018-12-13T00:59:52.234Z,12.83
2018-12-13T01:02:19.834Z,11.57
2018-12-13T01:04:47.498Z,12.00
2018-12-13T01:07:15.154Z,12.87
2018-12-13T01:09:42.721Z,12.60
2018-12-13T01:12:10.312Z,12.20
2018-12-13T01:14:37.886Z,12.70
2018-12-13T01:17:05.496Z,10.83
2018-12-13T01:19:33.090Z,10.80
2018-12-13T01:22:00.727Z,12.40
2018-12-13T01:24:28.311Z,12.00
2018-12-13T01:26:56.047Z,13.20
2018-12-13T01:29:23.642Z,12.73
2018-12-13T01:31:51.264Z,12.03
2018-12-13T01:34:18.857Z,12.27
2018-12-13T01:36:52.271Z,12.83
2018-12-13T01:39:16.059Z,12.83
2018-12-13T01:41:43.613Z,13.87
2018-12-13T01:44:11.180Z,11.73
2018-12-13T01:46:38.779Z,12.67
2018-12-13T01:49:06.354Z,13.23
2018-12-13T01:51:33.972Z,12.60
2018-12-13T01:54:01.546Z,13.00
2018-12-13T01:56:29.186Z,12.47
2018-12-13T01:58:57.640Z,12.40
2018-12-13T02:01:25.278Z,12.93
2018-12-13T02:03:52.859Z,12.27
2018-12-13T02:06:20.425Z,13.50
2018-12-13T02:08:48.022Z,12.40
2018-12-13T02:11:15.648Z,12.90
2018-12-13T02:13:43.221Z,12.47
2018-12-13T02:16:10.774Z,13.37
2018-12-13T02:18:38.358Z,13.27
2018-12-13T02:21:05.912Z,13.50
2018-12-13T02:23:33.504Z,13.90
2018-12-13T02:26:01.099Z,11.97
2018-12-13T02:28:28.700Z,14.13
2018-12-13T02:30:56.302Z,14.03
2018-12-13T02:33:23.879Z,13.47
2018-12-13T02:35:51.622Z,13.50
2018-12-13T02:38:19.202Z,13.67
2018-12-13T02:40:46.754Z,12.50
2018-12-13T02:43:14.323Z,13.50
2018-12-13T02:45:42.883Z,12.73
2018-12-13T02:48:10.469Z,12.37
2018-12-13T02:50:38.037Z,13.40
2018-12-13T02:53:05.689Z,12.50
2018-12-13T02:55:33.244Z,13.23
2018-12-13T02:58:00.813Z,12.90
2018-12-13T03:00:28.387Z,12.70
2018-12-13T03:02:56.051Z,12.33
2018-12-13T03:05:23.699Z,13.37
2018-12-13T03:07:51.272Z,13.00
2018-12-13T03:10:18.836Z,12.90
2018-12-13T03:12:46.444Z,13.43
2018-12-13T03:15:14.032Z,13.07
2018-12-13T03:17:41.620Z,13.53
2018-12-13T03:20:09.229Z,13.03
2018-12-13T03:22:36.860Z,13.87
2018-12-13T03:25:05.074Z,13.57
2018-12-13T03:27:32.669Z,14.93
2018-12-13T03:30:00.294Z,14.00
2018-12-13T03:32:28.006Z,14.57
2018-12-13T03:34:56.878Z,14.10
2018-12-13T03:37:24.460Z,14.30
2018-12-13T03:39:52.089Z,14.43
2018-12-13T03:42:19.652Z,14.37
2018-12-13T03:44:47.238Z,14.73
2018-12-13T03:47:14.843Z,14.17
2018-12-13T03:49:42.433Z,14.37
2018-12-13T03:52:10.022Z,15.03
2018-12-13T03:54:37.569Z,15.20
2018-12-13T03:57:05.213Z,15.03
2018-12-13T03:59:32.760Z,14.57
2018-12-13T04:02:00.360Z,14.73
2018-12-13T04:04:27.978Z,16.27
2018-12-13T04:06:55.569Z,15.10
2018-12-13T04:09:23.160Z,14.57
2018-12-13T04:11:50.724Z,14.83
2018-12-13T04:14:18.358Z,14.37
2018-12-13T04:16:45.940Z,14.50
2018-12-13T04:19:13.510Z,16.57
2018-12-13T04:21:41.156Z,15.17
2018-12-13T04:24:08.813Z,16.00
2018-12-13T04:26:36.404Z,16.13
2018-12-13T04:29:04.665Z,16.27
2018-12-13T04:31:32.298Z,15.73
2018-12-13T04:33:59.899Z,16.80
2018-12-13T04:36:27.486Z,15.63
2018-12-13T04:38:55.061Z,16.60
2018-12-13T04:41:22.665Z,15.07
2018-12-13T04:43:50.218Z,15.30
2018-12-13T04:46:17.817Z,16.23
2018-12-13T04:48:45.379Z,14.93
2018-12-13T04:51:12.968Z,15.30
2018-12-13T04:53:40.626Z,15.27
2018-12-13T04:56:08.190Z,15.60
2018-12-13T04:58:35.838Z,16.20
2018-12-13T05:01:03.427Z,14.80
2018-12-13T05:03:30.976Z,15.20
2018-12-13T05:05:58.558Z,14.37
2018-12-13T05:08:26.204Z,15.93
2018-12-13T05:10:53.781Z,14.47
2018-12-13T05:13:21.398Z,15.13
2018-12-13T05:15:48.953Z,14.70
2018-12-13T05:18:16.586Z,15.40
2018-12-13T05:20:44.173Z,14.73
2018-12-13T05:23:11.734Z,14.30
2018-12-13T05:25:39.319Z,14.10
2018-12-13T05:28:06.854Z,14.73
2018-12-13T05:30:34.439Z,14.87
2018-12-13T05:33:02.042Z,13.50
2018-12-13T05:35:29.632Z,14.70
2018-12-13T05:37:57.185Z,13.70
2018-12-13T05:40:24.770Z,15.17
2018-12-13T05:42:52.377Z,15.67
2018-12-13T05:45:19.955Z,14.50
2018-12-13T05:47:47.517Z,15.00
2018-12-13T05:50:15.200Z,15.00
2018-12-13T05:52:42.778Z,15.40
2018-12-13T05:55:10.374Z,14.37
2018-12-13T05:57:37.915Z,15.00
2018-12-13T06:00:07.402Z,15.17
2018-12-13T06:02:34.990Z,13.73
2018-12-13T06:05:02.560Z,13.90
2018-12-13T06:07:31.091Z,14.23
2018-12-13T06:09:58.672Z,15.20
2018-12-13T06:12:26.605Z,14.10
2018-12-13T06:14:54.186Z,15.13
2018-12-13T06:17:21.797Z,14.27
2018-12-13T06:19:49.403Z,14.67
2018-12-13T06:22:17.056Z,14.60
2018-12-13T06:24:44.669Z,13.67
2018-12-13T06:27:12.262Z,14.47
2018-12-13T06:29:41.947Z,14.83
2018-12-13T06:32:09.553Z,15.80
2018-12-13T06:34:37.117Z,14.80
2018-12-13T06:37:04.700Z,14.80
2018-12-13T06:39:32.305Z,14.43
2018-12-13T06:42:00.757Z,15.30
2018-12-13T06:44:28.366Z,15.90
2018-12-13T06:46:55.953Z,15.80
2018-12-13T06:49:23.533Z,15.47
2018-12-13T06:51:51.932Z,16.47
2018-12-13T06:54:19.481Z,17.57
2018-12-13T06:56:47.074Z,16.27
2018-12-13T06:59:14.639Z,16.30
2018-12-13T07:01:42.882Z,17.47
2018-12-13T07:04:11.187Z,16.77
2018-12-13T07:06:38.796Z,17.77
2018-12-13T07:09:06.998Z,17.97
2018-12-13T07:11:34.648Z,18.33
2018-12-13T07:14:02.490Z,18.03
2018-12-13T07:16:30.091Z,18.27
2018-12-13T07:18:58.327Z,17.03
2018-12-13T07:21:25.953Z,18.43
2018-12-13T07:23:53.542Z,17.73
2018-12-13T07:26:21.149Z,18.30
2018-12-13T07:28:48.744Z,18.63
2018-12-13T07:31:16.322Z,18.37
2018-12-13T07:33:43.888Z,17.80
2018-12-13T07:36:11.565Z,18.77
2018-12-13T07:38:39.220Z,19.90
2018-12-13T07:41:06.848Z,19.40
2018-12-13T07:43:34.447Z,18.23
2018-12-13T07:46:02.211Z,18.73
2018-12-13T07:48:29.767Z,19.13
2018-12-13T07:50:57.586Z,19.13
2018-12-13T07:53:25.289Z,21.53
2018-12-13T07:55:53.041Z,18.57
2018-12-13T07:58:20.673Z,24.17
2018-12-13T08:00:48.360Z,20.27
2018-12-13T08:03:16.029Z,20.37
2018-12-13T08:05:43.637Z,19.30
2018-12-13T08:08:11.373Z,20.10
2018-12-13T08:10:38.933Z,19.70
2018-12-13T08:13:06.620Z,20.03
2018-12-13T08:15:35.230Z,20.07
2018-12-13T08:18:02.878Z,20.93
2018-12-13T08:20:30.491Z,20.13
2018-12-13T08:22:58.077Z,20.40
2018-12-13T08:25:25.679Z,18.40
2018-12-13T08:27:53.383Z,17.47
2018-12-13T08:30:21.106Z,20.53
2018-12-13T08:32:48.807Z,18.93
2018-12-13T08:35:16.430Z,18.33
2018-12-13T08:37:44.095Z,18.90
2018-12-13T08:40:11.666Z,18.73
2018-12-13T08:42:39.268Z,17.70
2018-12-13T08:45:06.884Z,19.50
2018-12-13T08:47:34.465Z,19.17
2018-12-13T08:50:02.136Z,20.33
2018-12-13T08:52:29.807Z,19.50
2018-12-13T08:54:57.425Z,16.67
2018-12-13T08:57:27.858Z,17.43
2018-12-13T08:59:55.511Z,18.77
2018-12-13T09:02:23.141Z,18.93
2018-12-13T09:04:50.708Z,18.27
2018-12-13T09:07:18.404Z,17.07
2018-12-13T09:09:45.984Z,18.40
2018-12-13T09:12:13.620Z,17.30
2018-12-13T09:14:41.244Z,17.00
2018-12-13T09:17:08.824Z,17.23
2018-12-13T09:19:36.428Z,16.53
2018-12-13T09:22:03.984Z,17.03
2018-12-13T09:24:31.607Z,16.23
2018-12-13T09:26:59.195Z,17.27
2018-12-13T09:29:26.804Z,17.77
2018-12-13T09:31:54.358Z,18.47
2018-12-13T09:34:21.958Z,18.20
2018-12-13T09:36:49.581Z,16.60
2018-12-13T09:39:17.171Z,17.43
2018-12-13T09:41:44.763Z,16.90
2018-12-13T09:44:14.340Z,16.77
2018-12-13T09:46:41.970Z,16.47
2018-12-13T09:49:09.529Z,16.73
2018-12-13T09:51:37.108Z,16.50
2018-12-13T09:54:04.675Z,15.70
2018-12-13T09:56:32.410Z,15.43
2018-12-13T09:58:59.997Z,14.23
2018-12-13T10:01:27.562Z,14.27
2018-12-13T10:03:55.129Z,15.50
2018-12-13T10:06:22.708Z,14.33
2018-12-13T10:08:50.256Z,15.10
2018-12-13T10:11:17.842Z,14.23
2018-12-13T10:13:45.403Z,13.67
2018-12-13T10:16:13.115Z,15.07
2018-12-13T10:18:40.782Z,14.97
2018-12-13T10:21:08.362Z,15.13
2018-12-13T10:23:35.934Z,13.67
2018-12-13T10:26:03.557Z,14.37
2018-12-13T10:28:31.150Z,13.63
2018-12-13T10:30:58.746Z,13.07
2018-12-13T10:33:26.349Z,13.17
2018-12-13T10:35:53.955Z,10.17
2018-12-13T10:38:21.518Z,12.67
2018-12-13T10:40:49.112Z,12.97
2018-12-13T10:43:16.692Z,13.30
2018-12-13T10:45:44.378Z,12.27
2018-12-13T10:48:11.981Z,12.87
2018-12-13T10:50:39.552Z,12.27
2018-12-13T10:53:07.165Z,12.37
2018-12-13T10:55:34.757Z,11.33
2018-12-13T10:58:02.387Z,11.50
2018-12-13T11:00:35.540Z,11.80
2018-12-13T11:03:17.500Z,11.07
2018-12-13T11:05:45.807Z,11.27
2018-12-13T11:08:13.394Z,11.47
2018-12-13T11:10:41.150Z,11.27
2018-12-13T11:13:08.718Z,11.27
2018-12-13T11:15:36.347Z,11.43
2018-12-13T11:18:04.540Z,11.07
2018-12-13T11:20:32.155Z,9.77
2018-12-13T11:22:59.743Z,10.70
2018-12-13T11:25:27.550Z,11.20
2018-12-13T11:28:15.972Z,10.30
2018-12-13T11:30:43.576Z,9.60
2018-12-13T11:33:11.210Z,10.83
2018-12-13T11:35:38.883Z,11.47
2018-12-13T11:38:06.573Z,10.20
2018-12-13T11:40:34.166Z,9.60
2018-12-13T11:43:01.746Z,9.97
2018-12-13T11:45:29.313Z,11.07
2018-12-13T11:47:56.970Z,10.73
2018-12-13T11:50:25.193Z,10.30
2018-12-13T11:52:52.800Z,10.23
2018-12-13T11:55:28.479Z,10.23
2018-12-13T11:57:57.015Z,10.43
2018-12-13T12:00:24.698Z,10.70
2018-12-13T12:02:52.395Z,10.70
2018-12-13T12:05:20.208Z,10.90
2018-12-13T12:07:47.798Z,11.07
2018-12-13T12:10:15.562Z,10.33
2018-12-13T12:12:43.168Z,10.57
2018-12-13T12:15:10.951Z,10.50
2018-12-13T12:17:38.547Z,10.97
2018-12-13T12:20:06.847Z,10.10
2018-12-13T12:22:34.454Z,10.17
2018-12-13T12:25:02.031Z,10.83
2018-12-13T12:27:29.597Z,9.40
2018-12-13T12:29:57.158Z,9.87
2018-12-13T12:32:24.781Z,9.43
2018-12-13T12:34:52.405Z,10.47
2018-12-13T12:37:19.963Z,8.83
2018-12-13T12:39:48.482Z,10.03
2018-12-13T12:42:16.079Z,10.03
2018-12-13T12:44:43.794Z,9.63
2018-12-13T12:47:11.395Z,9.00
2018-12-13T12:49:38.995Z,10.20
2018-12-13T12:52:06.649Z,10.90
2018-12-13T12:54:34.331Z,9.53
2018-12-13T12:57:01.939Z,10.53
2018-12-13T12:59:29.646Z,9.40
2018-12-13T13:01:57.312Z,8.97
2018-12-13T13:04:24.974Z,11.00
2018-12-13T13:06:52.655Z,11.07
2018-12-13T13:09:24.967Z,10.07
2018-12-13T13:11:49.846Z,10.03
2018-12-13T13:14:18.414Z,10.43
2018-12-13T13:16:46.015Z,10.60
2018-12-13T13:19:13.598Z,10.87
2018-12-13T13:21:41.281Z,11.03
2018-12-13T13:24:08.924Z,11.23
2018-12-13T13:26:36.514Z,11.73
2018-12-13T13:29:04.169Z,11.23
2018-12-13T13:31:31.750Z,11.57
2018-12-13T13:33:59.432Z,12.13
2018-12-13T13:36:27.063Z,12.03
2018-12-13T13:38:54.721Z,11.97
2018-12-13T13:41:23.346Z,11.47
2018-12-13T13:43:50.969Z,12.53
2018-12-13T13:46:18.625Z,13.37
2018-12-13T13:48:46.194Z,12.50
2018-12-13T13:51:13.835Z,13.97
2018-12-13T13:53:41.454Z,13.93
2018-12-13T13:56:09.137Z,14.80
2018-12-13T13:58:36.752Z,13.53
2018-12-13T14:01:04.389Z,14.40
2018-12-13T14:03:32.002Z,16.07
2018-12-13T14:05:59.593Z,15.00
2018-12-13T14:08:27.130Z,13.33
2018-12-13T14:10:54.708Z,16.67
2018-12-13T14:13:22.347Z,16.97
2018-12-13T14:15:49.917Z,17.70
2018-12-13T14:18:17.555Z,18.43
2018-12-13T14:20:45.151Z,16.70
2018-12-13T14:23:12.813Z,16.90
2018-12-13T14:25:40.454Z,16.93
2018-12-13T14:28:08.142Z,16.50
2018-12-13T14:30:35.766Z,16.33
2018-12-13T14:33:03.342Z,16.53
2018-12-13T14:35:31.031Z,21.43
2018-12-13T14:37:58.601Z,18.10
2018-12-13T14:40:26.198Z,15.37
2018-12-13T14:42:53.791Z,15.80
2018-12-13T14:45:21.432Z,16.00
2018-12-13T14:47:49.850Z,15.70
2018-12-13T14:50:17.443Z,15.83
2018-12-13T14:52:45.034Z,15.77
2018-12-13T14:55:12.698Z,16.50
2018-12-13T14:57:40.369Z,15.13
2018-12-13T15:00:08.898Z,16.23
2018-12-13T15:02:36.479Z,15.33
2018-12-13T15:05:04.247Z,15.33
2018-12-13T15:07:31.910Z,16.83
2018-12-13T15:09:59.697Z,14.87
2018-12-13T15:12:27.310Z,14.57
2018-12-13T15:14:54.913Z,15.10
2018-12-13T15:17:22.649Z,15.73
2018-12-13T15:19:50.215Z,16.67
2018-12-13T15:22:18.883Z,15.43
2018-12-13T15:24:46.567Z,14.37
2018-12-13T15:27:14.229Z,16.00
2018-12-13T15:29:41.859Z,16.37
2018-12-13T15:32:09.731Z,16.43
2018-12-13T15:34:37.310Z,16.27
2018-12-13T15:37:04.952Z,15.43
2018-12-13T15:39:32.661Z,15.73
2018-12-13T15:42:00.313Z,16.00
2018-12-13T15:44:27.893Z,14.93
2018-12-13T15:46:55.896Z,14.67
2018-12-13T15:49:24.164Z,16.23
2018-12-13T15:51:51.754Z,14.73
2018-12-13T15:54:20.233Z,16.20
2018-12-13T15:56:47.828Z,15.63
2018-12-13T15:59:15.433Z,15.33
2018-12-13T16:01:43.010Z,15.30
2018-12-13T16:04:10.662Z,15.03
2018-12-13T16:06:38.259Z,14.07
2018-12-13T16:09:05.998Z,14.37
2018-12-13T16:11:33.640Z,15.03
2018-12-13T16:14:01.212Z,15.83
2018-12-13T16:16:28.821Z,14.83
2018-12-13T16:18:56.408Z,15.13
2018-12-13T16:21:23.997Z,14.53
2018-12-13T16:23:52.523Z,14.37
2018-12-13T16:26:20.197Z,14.07
2018-12-13T16:28:47.864Z,14.97
2018-12-13T16:31:15.525Z,15.03
2018-12-13T16:33:44.341Z,16.07
2018-12-13T16:36:12.013Z,14.87
2018-12-13T16:38:40.308Z,14.80
2018-12-13T16:41:07.885Z,16.43
2018-12-13T16:43:35.475Z,14.43
2018-12-13T16:46:03.105Z,14.33
2018-12-13T16:48:30.667Z,14.83
2018-12-13T16:50:58.257Z,15.40
2018-12-13T16:53:25.891Z,15.87
2018-12-13T16:55:53.470Z,13.70
2018-12-13T16:58:21.872Z,13.80
2018-12-13T17:00:49.577Z,12.07
2018-12-13T17:03:29.039Z,14.27
2018-12-13T17:05:56.683Z,13.07
2018-12-13T17:08:24.380Z,12.80
2018-12-13T17:10:52.136Z,13.00
2018-12-13T17:13:19.842Z,12.67
2018-12-13T17:15:47.477Z,13.20
2018-12-13T17:18:15.064Z,13.20
2018-12-13T17:20:42.627Z,12.17
2018-12-13T17:23:10.226Z,11.17
2018-12-13T17:25:37.871Z,12.07
2018-12-13T17:28:05.596Z,12.47
2018-12-13T17:30:33.169Z,12.97
2018-12-13T17:33:00.804Z,12.43
2018-12-13T17:35:28.399Z,12.27
2018-12-13T17:37:56.063Z,11.60
2018-12-13T17:40:23.628Z,13.00
2018-12-13T17:42:51.353Z,12.60
2018-12-13T17:45:18.951Z,12.30
2018-12-13T17:47:46.557Z,11.30
2018-12-13T17:50:14.396Z,12.20
2018-12-13T17:52:42.055Z,10.77
2018-12-13T17:55:09.728Z,11.20
2018-12-13T17:57:37.349Z,11.07
2018-12-13T18:00:09.779Z,9.90
2018-12-13T18:02:37.534Z,11.30
2018-12-13T18:05:05.239Z,11.47
2018-12-13T18:07:33.030Z,12.30
2018-12-13T18:10:00.665Z,11.23
2018-12-13T18:12:28.325Z,10.23
2018-12-13T18:14:55.995Z,10.50
2018-12-13T18:17:23.593Z,10.90
2018-12-13T18:19:51.212Z,10.83
2018-12-13T18:22:18.786Z,10.57
2018-12-13T18:24:46.376Z,11.63
2018-12-13T18:27:15.209Z,12.43
2018-12-13T18:29:42.978Z,12.07
2018-12-13T18:32:10.587Z,13.17
2018-12-13T18:34:38.215Z,11.30
2018-12-13T18:37:05.792Z,13.50
2018-12-13T18:39:33.476Z,10.57
2018-12-13T18:42:01.138Z,14.10
2018-12-13T18:44:28.778Z,12.57
2018-12-13T18:46:56.395Z,13.57
2018-12-13T18:49:23.974Z,12.70
2018-12-13T18:51:51.589Z,12.27
2018-12-13T18:54:19.197Z,10.87
2018-12-13T18:56:46.761Z,10.87
2018-12-13T18:59:14.336Z,11.20
2018-12-13T19:01:42.202Z,11.47
2018-12-13T19:04:09.784Z,10.63
2018-12-13T19:06:37.382Z,10.47
2018-12-13T19:09:05.616Z,10.27
2018-12-13T19:11:33.281Z,11.30
2018-12-13T19:14:00.829Z,11.23
2018-12-13T19:16:29.468Z,12.50
2018-12-13T19:18:57.081Z,12.77
2018-12-13T19:21:24.736Z,11.67
2018-12-13T19:23:52.317Z,10.17
2018-12-13T19:26:20.291Z,11.07
2018-12-13T19:28:49.179Z,11.93
2018-12-13T19:31:16.752Z,11.40
2018-12-13T19:33:44.348Z,11.87
2018-12-13T19:36:11.910Z,11.33
2018-12-13T19:38:39.511Z,11.60
2018-12-13T19:41:07.071Z,11.53
2018-12-13T19:43:34.655Z,11.10
2018-12-13T19:46:02.525Z,12.10
2018-12-13T19:48:30.159Z,13.43
2018-12-13T19:50:57.800Z,11.97
2018-12-13T19:53:25.483Z,10.90
2018-12-13T19:55:53.068Z,11.33
2018-12-13T19:58:20.660Z,10.33
2018-12-13T20:00:48.259Z,9.43
2018-12-13T20:03:15.878Z,10.63
2018-12-13T20:05:43.556Z,10.50
2018-12-13T20:08:11.199Z,10.57
2018-12-13T20:10:38.841Z,11.67
2018-12-13T20:13:07.125Z,10.93
2018-12-13T20:15:34.807Z,10.13
2018-12-13T20:18:03.523Z,10.17
2018-12-13T20:20:32.488Z,9.93
2018-12-13T20:23:00.915Z,10.93
2018-12-13T20:25:28.607Z,10.87
2018-12-13T20:27:56.257Z,10.03
2018-12-13T20:30:23.902Z,10.80
2018-12-13T20:32:51.484Z,10.10
2018-12-13T20:35:20.196Z,10.27
2018-12-13T20:37:47.795Z,9.97
2018-12-13T20:40:15.438Z,9.70
2018-12-13T20:42:43.182Z,10.53
2018-12-13T20:45:10.784Z,9.47
2018-12-13T20:47:38.365Z,10.37
2018-12-13T20:50:06.113Z,9.63
2018-12-13T20:52:33.813Z,9.30
2018-12-13T20:55:01.634Z,10.07
2018-12-13T20:57:29.206Z,9.77
2018-12-13T20:59:56.823Z,10.20
2018-12-13T21:02:25.759Z,10.80
2018-12-13T21:04:53.344Z,9.80
2018-12-13T21:07:26.516Z,10.00
2018-12-13T21:09:54.293Z,9.53
2018-12-13T21:12:21.871Z,9.97
2018-12-13T21:14:49.736Z,11.77
2018-12-13T21:17:17.331Z,11.57
2018-12-13T21:19:44.960Z,10.57
2018-12-13T21:22:12.624Z,11.30
2018-12-13T21:24:40.293Z,10.83
2018-12-13T21:27:07.910Z,10.57
2018-12-13T21:29:35.600Z,11.20
2018-12-13T21:32:03.373Z,11.23
2018-12-13T21:34:31.041Z,11.63
2018-12-13T21:36:59.440Z,11.10
2018-12-13T21:39:27.121Z,11.10
2018-12-13T21:41:54.772Z,11.80
2018-12-13T21:44:22.414Z,11.33
2018-12-13T21:46:50.196Z,11.57
2018-12-13T21:49:17.938Z,11.77
2018-12-13T21:51:46.713Z,11.83
2018-12-13T21:54:14.388Z,10.87
2018-12-13T21:56:43.055Z,10.67
2018-12-13T21:59:10.786Z,11.37
2018-12-13T22:01:38.368Z,10.53
2018-12-13T22:04:06.615Z,10.93
2018-12-13T22:06:34.182Z,11.33
2018-12-13T22:09:01.747Z,11.23
2018-12-13T22:11:29.410Z,10.63
2018-12-13T22:13:57.026Z,10.77
2018-12-13T22:16:24.609Z,11.33
2018-12-13T22:18:52.181Z,11.10
2018-12-13T22:21:19.764Z,10.93
2018-12-13T22:23:47.366Z,12.13
2018-12-13T22:26:14.949Z,11.10
2018-12-13T22:28:42.514Z,11.20
2018-12-13T22:31:10.112Z,11.43
2018-12-13T22:33:37.706Z,12.30
2018-12-13T22:36:05.351Z,10.87
2018-12-13T22:38:32.932Z,12.17
2018-12-13T22:41:00.528Z,11.57
2018-12-13T22:43:28.093Z,12.83
2018-12-13T22:45:55.710Z,12.00
2018-12-13T22:48:23.277Z,11.17
2018-12-13T22:50:50.888Z,11.97
2018-12-13T22:53:18.507Z,11.10
2018-12-13T22:55:46.067Z,11.43
2018-12-13T22:58:13.687Z,11.10
2018-12-13T23:00:42.181Z,11.63
2018-12-13T23:03:09.774Z,11.70
2018-12-13T23:05:37.357Z,11.30
2018-12-13T23:08:04.936Z,13.60
2018-12-13T23:10:32.552Z,12.30
2018-12-13T23:13:00.240Z,17.83
2018-12-13T23:15:27.801Z,14.47
2018-12-13T23:17:55.366Z,13.10
2018-12-13T23:20:22.917Z,12.67
2018-12-13T23:22:50.447Z,12.27
2018-12-13T23:25:18.031Z,12.13
2018-12-13T23:27:45.612Z,12.83
2018-12-13T23:30:14.148Z,14.10
2018-12-13T23:32:41.714Z,13.73
2018-12-13T23:35:09.277Z,11.90
2018-12-13T23:37:36.850Z,13.13
2018-12-13T23:40:04.410Z,12.57
2018-12-13T23:42:31.993Z,12.13
2018-12-13T23:44:59.566Z,12.63
2018-12-13T23:47:27.174Z,12.90
2018-12-13T23:49:54.762Z,12.93
2018-12-13T23:52:22.315Z,14.27
2018-12-13T23:54:49.900Z,12.90
2018-12-13T23:57:17.449Z,12.97
2018-12-13T23:59:45.095Z,13.13
